Time;durP1;ratioP1;P1;durP2;ratioP2;P2;SDS_P1;SDS_P2;PMS_P1;PMS_P2;Temp;Humidity;BMP_temperature;BMP_pressure;BME280_temperature;BME280_humidity;BME280_pressure;Samples;Min_cycle;Max_cycle;Signal;HPM_P1;HPM_P2
2021/10/30 17:03:21;;;;;;;31.91;15.18;;;;;;;6.55;86.85;101214.22;369833;142;881197;-60
2021/10/30 17:04:22;;;;;;;30.64;15.78;;;;;;;6.47;86.85;101223.41;364548;144;858527;-59
2021/10/30 17:05:24;;;;;;;21.19;12.38;;;;;;;6.48;86.81;101217.44;363803;146;857321;-59
2021/10/30 17:06:26;;;;;;;23.42;12.99;;;;;;;6.51;86.78;101214.95;363804;146;864796;-58
2021/10/30 17:07:28;;;;;;;23.23;13.11;;;;;;;6.60;86.65;101219.48;362846;146;857647;-59
2021/10/30 17:08:30;;;;;;;18.96;10.11;;;;;;;6.60;86.65;101219.48;363428;145;859050;-60
2021/10/30 17:09:32;;;;;;;22.16;11.69;;;;;;;6.85;86.04;101212.45;357422;145;856204;-59
2021/10/30 17:10:37;;;;;;;21.93;11.55;;;;;;;7.01;85.60;101218.91;354735;148;864244;-59
2021/10/30 17:11:38;;;;;;;20.08;10.99;;;;;;;7.18;84.94;101214.22;355790;148;856294;-60
2021/10/30 17:12:40;;;;;;;20.78;11.89;;;;;;;7.36;84.32;101213.80;354935;148;856249;-60
2021/10/30 17:13:43;;;;;;;22.41;11.70;;;;;;;7.54;83.71;101215.99;353786;149;857409;-60
2021/10/30 17:14:45;;;;;;;17.20;9.51;;;;;;;7.72;83.05;101213.01;355247;149;863712;-60
2021/10/30 17:15:46;;;;;;;21.70;11.72;;;;;;;7.92;82.28;101211.72;357176;148;856687;-60
2021/10/30 17:16:48;;;;;;;22.39;11.59;;;;;;;8.07;81.66;101217.27;356250;148;856172;-60
2021/10/30 17:17:50;;;;;;;20.03;11.71;;;;;;;8.26;80.88;101207.34;354299;147;863713;-60
2021/10/30 17:18:52;;;;;;;22.97;12.13;;;;;;;8.40;80.30;101215.38;354703;148;863699;-60
2021/10/30 17:19:53;;;;;;;17.81;11.14;;;;;;;8.54;79.72;101213.13;355474;148;856768;-61
2021/10/30 17:20:55;;;;;;;20.99;11.99;;;;;;;8.68;78.98;101216.01;353960;148;863616;-60
2021/10/30 17:21:57;;;;;;;19.95;11.79;;;;;;;;;;355788;149;856681;-60
2021/10/30 17:22:59;;;;;;;23.00;13.30;;;;;;;;;;355087;148;856408;-59
2021/10/30 17:24:00;;;;;;;18.53;11.19;;;;;;;;;;355807;149;856297;-61
2021/10/30 17:25:03;;;;;;;27.83;15.53;;;;;;;;;;355396;147;856277;-60
2021/10/30 17:26:05;;;;;;;24.99;13.07;;;;;;;;;;357058;147;856336;-60
2021/10/30 17:27:10;;;;;;;30.19;18.62;;;;;;;;;;357587;147;856577;-60
2021/10/30 17:28:10;;;;;;;26.92;17.93;;;;;;;;;;349282;151;864149;-60
2021/10/30 17:29:12;;;;;;;29.13;16.33;;;;;;;;;;351112;150;856871;-60
2021/10/30 17:30:14;;;;;;;32.11;18.74;;;;;;;;;;354763;147;856433;-59
2021/10/30 17:31:16;;;;;;;32.26;19.26;;;;;;;;;;356956;147;863871;-60
2021/10/30 17:32:18;;;;;;;37.49;19.38;;;;;;;;;;356162;148;863811;-60
2021/10/30 17:33:19;;;;;;;38.87;20.90;;;;;;;;;;355332;148;864104;-60
2021/10/30 17:34:21;;;;;;;37.99;20.93;;;;;;;;;;354615;150;863696;-61
2021/10/30 17:35:23;;;;;;;32.25;19.31;;;;;;;;;;354759;149;865136;-61
2021/10/30 17:36:25;;;;;;;35.75;21.76;;;;;;;;;;354965;147;864695;-61
2021/10/30 17:37:27;;;;;;;43.80;19.75;;;;;;;;;;357495;148;856731;-61
2021/10/30 17:38:28;;;;;;;34.30;19.07;;;;;;;;;;357122;149;863729;-61
2021/10/30 17:39:30;;;;;;;40.35;20.96;;;;;;;;;;356416;148;863956;-60
2021/10/30 17:40:32;;;;;;;35.98;21.49;;;;;;;;;;357527;148;856128;-61
2021/10/30 17:41:34;;;;;;;36.45;20.75;;;;;;;;;;354540;148;863760;-61
2021/10/30 17:42:35;;;;;;;37.76;21.54;;;;;;;;;;358722;148;856538;-61
2021/10/30 17:43:37;;;;;;;38.05;21.76;;;;;;;;;;355353;148;861985;-61
2021/10/30 17:44:38;;;;;;;42.87;23.04;;;;;;;;;;354619;147;857171;-62
2021/10/30 17:45:40;;;;;;;36.58;20.26;;;;;;;;;;357012;148;862101;-61
2021/10/30 17:46:41;;;;;;;37.96;20.72;;;;;;;;;;356752;148;864199;-61
2021/10/30 17:47:43;;;;;;;37.26;20.58;;;;;;;;;;355545;148;863687;-61
2021/10/30 17:48:45;;;;;;;38.33;22.38;;;;;;;;;;356972;149;863619;-61
2021/10/30 17:49:47;;;;;;;36.12;20.91;;;;;;;;;;357941;147;863799;-61
2021/10/30 17:50:48;;;;;;;36.24;20.38;;;;;;;;;;348637;150;856264;-61
2021/10/30 17:51:51;;;;;;;38.35;22.44;;;;;;;;;;356816;148;863673;-61
2021/10/30 17:52:52;;;;;;;34.19;18.77;;;;;;;;;;356059;148;856118;-61
2021/10/30 17:53:54;;;;;;;33.81;19.71;;;;;;;;;;355460;148;856281;-62
2021/10/30 17:54:55;;;;;;;41.64;24.28;;;;;;;;;;356120;148;856348;-61
2021/10/30 17:55:57;;;;;;;40.36;22.62;;;;;;;;;;359295;148;863877;-60
2021/10/30 17:56:59;;;;;;;39.31;20.69;;;;;;;;;;355277;147;864209;-60
2021/10/30 17:58:00;;;;;;;41.21;24.01;;;;;;;;;;354918;148;856219;-60
2021/10/30 17:59:02;;;;;;;37.00;22.24;;;;;;;;;;355993;149;856195;-61
2021/10/30 18:00:04;;;;;;;39.61;23.12;;;;;;;;;;354580;149;863959;-61
2021/10/30 18:01:06;;;;;;;44.16;24.63;;;;;;;;;;356142;148;864481;-61
2021/10/30 18:02:08;;;;;;;42.66;24.35;;;;;;;;;;355534;147;856867;-61
2021/10/30 18:03:10;;;;;;;36.87;22.15;;;;;;;;;;356427;147;857445;-61
2021/10/30 18:04:12;;;;;;;42.54;22.19;;;;;;;;;;356187;148;856352;-61
2021/10/30 18:05:13;;;;;;;44.26;23.68;;;;;;;;;;356159;147;856315;-62
2021/10/30 18:06:15;;;;;;;42.69;22.88;;;;;;;;;;348351;150;856371;-60
2021/10/30 18:07:18;;;;;;;41.31;23.29;;;;;;;;;;354621;148;863984;-60
2021/10/30 18:08:19;;;;;;;41.29;24.14;;;;;;;;;;353444;147;864135;-60
2021/10/30 18:09:22;;;;;;;39.76;20.16;;;;;;;;;;354189;149;856598;-60
2021/10/30 18:10:25;;;;;;;33.32;19.16;;;;;;;;;;358288;148;856225;-60
2021/10/30 18:11:26;;;;;;;34.44;19.94;;;;;;;;;;356844;148;863454;-60
2021/10/30 18:12:28;;;;;;;34.91;20.02;;;;;;;;;;355051;148;863658;-60
2021/10/30 18:13:29;;;;;;;43.19;22.06;;;;;;;;;;356228;148;863664;-60
2021/10/30 18:14:31;;;;;;;40.19;21.89;;;;;;;;;;353364;148;863647;-60
2021/10/30 18:15:34;;;;;;;33.54;17.96;;;;;;;;;;357035;149;863656;-60
2021/10/30 18:16:38;;;;;;;36.82;19.89;;;;;;;;;;355709;149;864103;-60
2021/10/30 18:17:39;;;;;;;38.17;21.97;;;;;;;;;;357880;148;856364;-61
2021/10/30 18:18:41;;;;;;;39.26;21.83;;;;;;;;;;355033;148;856358;-60
2021/10/30 18:19:43;;;;;;;30.62;18.17;;;;;;;;;;354826;148;856661;-60
2021/10/30 18:20:44;;;;;;;35.22;19.28;;;;;;;;;;355849;148;856195;-60
2021/10/30 18:21:46;;;;;;;36.77;20.72;;;;;;;;;;354393;147;856214;-60
2021/10/30 18:22:48;;;;;;;37.41;21.86;;;;;;;;;;356181;147;863790;-61
2021/10/30 18:23:49;;;;;;;34.66;18.46;;;;;;;;;;357303;148;856129;-61
2021/10/30 18:24:51;;;;;;;39.96;23.01;;;;;;;;;;354482;148;856366;-61
2021/10/30 18:25:53;;;;;;;38.75;23.44;;;;;;;;;;355928;147;856788;-60
2021/10/30 18:26:54;;;;;;;44.98;23.43;;;;;;;;;;355880;147;863809;-61
2021/10/30 18:27:56;;;;;;;38.89;21.19;;;;;;;;;;355397;148;863825;-61
2021/10/30 18:28:58;;;;;;;39.10;22.34;;;;;;;;;;356558;148;856806;-61
2021/10/30 18:29:59;;;;;;;44.87;23.75;;;;;;;;;;356660;148;863733;-61
2021/10/30 18:31:01;;;;;;;40.16;22.81;;;;;;;;;;356363;149;856157;-61
2021/10/30 18:32:03;;;;;;;39.97;23.11;;;;;;;;;;355349;148;864017;-61
2021/10/30 18:33:04;;;;;;;42.45;22.96;;;;;;;;;;358390;148;864028;-61
2021/10/30 18:34:07;;;;;;;46.38;25.37;;;;;;;;;;354389;148;864100;-61
2021/10/30 18:35:09;;;;;;;48.60;25.47;;;;;;;;;;356713;148;856259;-61
2021/10/30 18:36:11;;;;;;;46.69;22.65;;;;;;;;;;356834;147;863973;-61
2021/10/30 18:37:12;;;;;;;44.01;24.87;;;;;;;;;;354416;148;856812;-61
2021/10/30 18:38:14;;;;;;;45.12;24.23;;;;;;;;;;357081;147;856351;-59
2021/10/30 18:39:16;;;;;;;43.10;24.83;;;;;;;;;;354937;148;858127;-59
2021/10/30 18:40:17;;;;;;;44.19;25.44;;;;;;;;;;356597;147;863752;-59
2021/10/30 18:41:19;;;;;;;46.74;26.99;;;;;;;;;;355002;148;863760;-60
2021/10/30 18:42:21;;;;;;;44.35;25.05;;;;;;;;;;356417;147;863908;-60
2021/10/30 18:43:23;;;;;;;41.17;21.33;;;;;;;;;;354564;148;857080;-60
2021/10/30 18:44:24;;;;;;;46.49;24.19;;;;;;;;;;357339;148;864515;-60
2021/10/30 18:45:26;;;;;;;38.62;23.30;;;;;;;;;;356704;149;856740;-60
2021/10/30 18:46:28;;;;;;;47.57;24.93;;;;;;;;;;357004;148;863779;-60
2021/10/30 18:47:30;;;;;;;42.01;23.46;;;;;;;;;;359263;148;864447;-60
2021/10/30 18:48:31;;;;;;;41.19;24.21;;;;;;;;;;355661;147;856282;-60
2021/10/30 18:49:33;;;;;;;44.29;25.47;;;;;;;;;;356668;148;864022;-60
2021/10/30 18:50:35;;;;;;;35.64;20.99;;;;;;;;;;356400;148;863878;-60
2021/10/30 18:51:37;;;;;;;41.07;23.45;;;;;;;;;;355973;148;856629;-60
2021/10/30 18:52:39;;;;;;;43.65;24.15;;;;;;;;;;357931;147;863952;-60
2021/10/30 18:53:40;;;;;;;41.28;23.16;;;;;;;;;;353696;150;863776;-60
2021/10/30 18:54:42;;;;;;;40.01;23.51;;;;;;;;;;355649;148;863757;-60
2021/10/30 18:55:43;;;;;;;47.72;25.44;;;;;;;;;;356627;148;863765;-60
2021/10/30 18:56:45;;;;;;;42.46;26.41;;;;;;;;;;355174;149;856240;-60
2021/10/30 18:57:47;;;;;;;32.59;17.78;;;;;;;;;;355453;148;856207;-60
2021/10/30 18:58:49;;;;;;;38.91;21.73;;;;;;;;;;355333;148;856217;-60
2021/10/30 18:59:50;;;;;;;38.83;21.19;;;;;;;;;;356811;148;863832;-60
2021/10/30 19:00:52;;;;;;;40.87;21.99;;;;;;;;;;357591;148;858985;-60
2021/10/30 19:01:53;;;;;;;37.06;20.79;;;;;;;;;;358265;148;865285;-60
2021/10/30 19:02:56;;;;;;;41.50;23.09;;;;;;;;;;355671;147;865966;-60
2021/10/30 19:03:58;;;;;;;42.71;22.65;;;;;;;;;;353433;149;866409;-60
2021/10/30 19:04:59;;;;;;;40.04;23.94;;;;;;;;;;350479;150;857771;-60
2021/10/30 19:06:04;;;;;;;37.27;22.63;;;;;;;;;;349582;151;857375;-60
2021/10/30 19:07:05;;;;;;;44.91;24.89;;;;;;;;;;352107;150;857184;-60
2021/10/30 19:08:06;;;;;;;36.55;21.63;;;;;;;;;;348495;150;857488;-60
2021/10/30 19:09:08;;;;;;;39.20;24.17;;;;;;;;;;349925;152;863101;-60
2021/10/30 19:10:11;;;;;;;43.95;22.31;;;;;;;;;;349357;150;865747;-60
2021/10/30 19:11:12;;;;;;;41.87;24.57;;;;;;;;;;350084;150;865081;-60
2021/10/30 19:12:15;;;;;;;43.98;24.47;;;;;;;;;;348437;153;866073;-60
2021/10/30 19:13:17;;;;;;;40.89;24.71;;;;;;;;;;346385;152;865156;-60
2021/10/30 19:14:19;;;;;;;43.07;23.31;;;;;;;;;;345598;153;859828;-60
2021/10/30 19:15:20;;;;;;;40.51;24.34;;;;;;;;;;349583;152;863450;-60
2021/10/30 19:16:24;;;;;;;43.13;23.15;;;;;;;;;;350913;150;864860;-60
2021/10/30 19:17:28;;;;;;;44.54;23.64;;;;;;;;;;348977;150;859304;-60
2021/10/30 19:18:29;;;;;;;39.03;23.26;;;;;;;;;;349977;152;867932;-60
2021/10/30 19:19:30;;;;;;;36.72;19.60;;;;;;;;;;350469;150;857281;-60
2021/10/30 19:20:32;;;;;;;42.57;22.17;;;;;;;;;;348970;151;865455;-60
2021/10/30 19:21:34;;;;;;;51.14;25.48;;;;;;;;;;349863;150;858700;-60
2021/10/30 19:22:35;;;;;;;41.91;21.74;;;;;;;;;;350400;152;858373;-61
2021/10/30 19:23:37;;;;;;;47.57;23.66;;;;;;;;;;351007;150;857513;-60
2021/10/30 19:24:39;;;;;;;42.05;22.89;;;;;;;;;;351086;150;857326;-60
2021/10/30 19:25:41;;;;;;;37.24;22.27;;;;;;;;;;348731;152;865865;-60
2021/10/30 19:26:42;;;;;;;51.57;24.81;;;;;;;;;;354261;150;857918;-60
2021/10/30 19:27:44;;;;;;;43.94;21.96;;;;;;;;;;350045;150;859850;-60
2021/10/30 19:28:45;;;;;;;42.08;21.33;;;;;;;;;;350965;151;857543;-61
2021/10/30 19:29:47;;;;;;;42.87;24.78;;;;;;;;;;350711;150;858339;-60
2021/10/30 19:30:49;;;;;;;46.05;25.13;;;;;;;;;;351058;151;865176;-61
2021/10/30 19:31:50;;;;;;;45.27;24.53;;;;;;;;;;350395;150;866712;-61
2021/10/30 19:45:17;;;;;;;45.19;23.36;;;;;;;8.28;74.64;101198.79;368674;142;879676;-62
2021/10/30 19:46:19;;;;;;;38.46;21.03;;;;;;;8.16;74.47;101203.68;361217;147;858536;-59
2021/10/30 19:47:21;;;;;;;44.95;21.49;;;;;;;8.16;74.47;101203.68;365128;147;857286;-60
2021/10/30 19:48:23;;;;;;;41.11;20.67;;;;;;;8.08;74.28;101202.64;361769;147;866699;-59
2021/10/30 19:49:25;;;;;;;30.91;16.92;;;;;;;8.03;74.10;101189.66;357601;146;857252;-60
2021/10/30 19:50:26;;;;;;;33.66;18.29;;;;;;;8.02;74.00;101199.08;357163;147;864939;-60
2021/10/30 19:51:28;;;;;;;32.09;17.97;;;;;;;8.02;74.00;101199.08;357552;147;857175;-60
2021/10/30 19:52:30;;;;;;;34.37;18.54;;;;;;;8.04;73.59;101194.83;356571;147;865059;-59
2021/10/30 19:53:32;;;;;;;30.02;18.16;;;;;;;8.08;73.42;101200.06;359375;147;857724;-59
2021/10/30 19:54:35;;;;;;;32.31;18.71;;;;;;;8.12;73.18;101201.87;356091;147;866037;-60
2021/10/30 19:55:37;;;;;;;31.54;17.67;;;;;;;8.16;72.74;101201.98;357771;147;857403;-60
2021/10/30 19:56:40;;;;;;;35.80;19.10;;;;;;;8.21;72.39;101203.80;356953;147;858712;-60
2021/10/30 19:57:42;;;;;;;29.31;18.12;;;;;;;8.26;72.32;101200.46;358250;147;857304;-59
2021/10/30 19:58:44;;;;;;;30.81;18.51;;;;;;;8.31;71.87;101198.00;355806;150;857375;-60
2021/10/30 19:59:45;;;;;;;33.39;19.22;;;;;;;8.31;71.37;101196.27;357037;150;860014;-60
2021/10/30 20:00:47;;;;;;;31.93;18.61;;;;;;;8.29;71.24;101197.09;356849;150;865178;-62
2021/10/30 20:01:49;;;;;;;32.17;18.88;;;;;;;8.24;71.16;101193.55;356538;147;867848;-60
2021/10/30 20:02:51;;;;;;;32.83;19.60;;;;;;;8.23;71.58;101197.81;355948;149;857356;-62
2021/10/30 20:03:53;;;;;;;32.56;19.12;;;;;;;8.27;71.85;101201.35;358860;147;856687;-60
2021/10/30 20:04:55;;;;;;;34.42;19.32;;;;;;;8.34;71.87;101201.50;356567;147;865818;-60
2021/10/30 20:05:57;;;;;;;29.66;18.28;;;;;;;8.43;71.16;101205.11;358035;147;857314;-61
2021/10/30 20:06:59;;;;;;;31.66;18.86;;;;;;;8.50;70.40;101199.30;355170;149;865748;-61
2021/10/30 20:08:01;;;;;;;32.53;19.09;;;;;;;8.59;70.15;101201.19;353805;150;866578;-61
2021/10/30 20:09:03;;;;;;;31.01;18.84;;;;;;;8.67;69.67;101201.36;353702;147;865007;-61
2021/10/30 20:10:06;;;;;;;54.92;25.77;;;;;;;8.77;68.84;101205.86;358093;147;866875;-62
2021/10/30 20:11:10;;;;;;;45.51;24.49;;;;;;;8.86;68.50;101200.88;356686;147;857356;-61
2021/10/30 20:12:12;;;;;;;39.17;22.88;;;;;;;8.91;68.68;101206.11;357479;150;857494;-61
2021/10/30 20:13:14;;;;;;;45.19;25.25;;;;;;;8.95;68.82;101194.14;356222;147;865608;-60
2021/10/30 20:14:16;;;;;;;40.42;23.88;;;;;;;8.94;68.91;101200.16;357988;147;865737;-61
2021/10/30 20:15:17;;;;;;;55.43;28.39;;;;;;;8.90;68.74;101202.67;355868;147;866173;-61
2021/10/30 20:16:19;;;;;;;61.51;27.96;;;;;;;8.84;68.66;101199.09;356453;147;857594;-62
2021/10/30 20:17:21;;;;;;;59.96;29.84;;;;;;;8.73;68.89;101191.15;356225;149;857763;-62
2021/10/30 20:18:23;;;;;;;68.76;29.58;;;;;;;8.64;69.20;101201.30;355029;150;865994;-62
2021/10/30 20:19:25;;;;;;;63.28;26.77;;;;;;;8.53;69.07;101203.64;358228;150;857336;-61
2021/10/30 20:20:27;;;;;;;76.17;32.13;;;;;;;8.46;69.49;101205.17;355985;147;865434;-61
2021/10/30 20:21:30;;;;;;;117.58;32.18;;;;;;;8.37;70.04;101198.12;354632;149;858325;-61
2021/10/30 20:22:32;;;;;;;50.73;25.88;;;;;;;8.30;70.02;101202.27;355201;147;857413;-61
2021/10/30 20:23:34;;;;;;;55.51;25.70;;;;;;;8.26;70.47;101192.72;356818;147;857692;-61
2021/10/30 20:24:35;;;;;;;88.88;29.58;;;;;;;8.22;70.53;101201.23;354842;147;865174;-61
2021/10/30 20:25:37;;;;;;;47.21;24.21;;;;;;;8.23;70.50;101204.70;354827;150;857401;-61
2021/10/30 20:26:39;;;;;;;47.44;23.40;;;;;;;8.25;70.79;101209.04;361092;147;865398;-61
2021/10/30 20:27:41;;;;;;;56.76;25.91;;;;;;;8.29;70.84;101208.27;358486;147;866051;-61
2021/10/30 20:28:43;;;;;;;64.24;25.84;;;;;;;8.35;70.85;101199.80;353211;147;858986;-61
2021/10/30 20:29:45;;;;;;;61.53;22.89;;;;;;;8.41;70.70;101201.62;354098;147;865631;-61
2021/10/30 20:30:46;;;;;;;51.67;23.92;;;;;;;8.48;70.51;101198.34;356385;147;865809;-61
2021/10/30 20:31:52;;;;;;;79.59;22.45;;;;;;;8.51;70.35;101193.30;355772;147;857349;-61
2021/10/30 20:32:54;;;;;;;49.66;20.85;;;;;;;;;;357162;150;858389;-61
2021/10/30 20:33:56;;;;;;;74.11;22.66;;;;;;;;;;355015;147;859818;-61
2021/10/30 20:34:57;;;;;;;140.49;27.81;;;;;;;;;;356141;147;864958;-61
